createdAt,value
2023-05-13T00:00:28.393Z,2080.00
2023-05-13T00:01:28.445Z,2060.00
2023-05-13T00:02:28.564Z,2056.00
2023-05-13T00:03:28.548Z,2053.00
2023-05-13T00:04:28.527Z,2061.00
2023-05-13T00:05:28.528Z,2038.00
2023-05-13T00:06:28.671Z,2025.00
2023-05-13T00:07:28.646Z,2013.00
2023-05-13T00:08:28.703Z,2002.00
2023-05-13T00:09:28.695Z,1987.00
2023-05-13T00:10:28.781Z,1990.00
2023-05-13T00:11:28.774Z,2000.00
2023-05-13T00:12:28.958Z,1978.00
2023-05-13T00:13:28.851Z,1967.00
2023-05-13T00:14:28.935Z,1967.00
2023-05-13T00:15:28.944Z,1943.00
2023-05-13T00:16:29.087Z,1914.00
2023-05-13T00:17:29.088Z,1926.00
2023-05-13T00:18:29.067Z,1928.00
2023-05-13T00:19:29.084Z,1924.00
2023-05-13T00:20:29.131Z,1916.00
2023-05-13T00:21:29.150Z,1911.00
2023-05-13T00:22:29.361Z,1908.00
2023-05-13T00:23:29.234Z,1922.00
2023-05-13T00:24:29.248Z,1923.00
2023-05-13T00:25:29.323Z,1903.00
2023-05-13T00:26:29.367Z,1909.00
2023-05-13T00:27:29.449Z,1904.00
2023-05-13T00:28:29.446Z,1879.00
2023-05-13T00:29:29.479Z,1886.00
2023-05-13T00:30:29.526Z,1880.00
2023-05-13T00:31:29.671Z,1898.00
2023-05-13T00:32:29.658Z,1885.00
2023-05-13T00:33:29.626Z,1889.00
2023-05-13T00:34:29.690Z,1893.00
2023-05-13T00:35:29.665Z,1884.00
2023-05-13T00:36:29.740Z,1879.00
2023-05-13T00:37:29.748Z,1881.00
2023-05-13T00:38:29.796Z,1876.00
2023-05-13T00:39:29.824Z,1889.00
2023-05-13T00:40:29.856Z,1883.00
2023-05-13T00:41:29.917Z,1868.00
2023-05-13T00:42:29.964Z,1857.00
2023-05-13T00:43:30.022Z,1862.00
2023-05-13T00:44:30.023Z,1860.00
2023-05-13T00:45:30.142Z,1855.00
2023-05-13T00:46:30.323Z,1844.00
2023-05-13T00:47:30.193Z,1831.00
2023-05-13T00:48:30.209Z,1838.00
2023-05-13T00:49:30.221Z,1831.00
2023-05-13T00:50:30.242Z,1830.00
2023-05-13T00:51:30.287Z,1817.00
2023-05-13T00:52:30.341Z,1810.00
2023-05-13T00:53:30.393Z,1805.00
2023-05-13T00:54:30.407Z,1808.00
2023-05-13T00:55:30.455Z,1781.00
2023-05-13T00:56:30.454Z,1784.00
2023-05-13T00:57:30.491Z,1768.00
2023-05-13T00:58:30.555Z,1764.00
2023-05-13T00:59:30.590Z,1758.00
2023-05-13T01:00:30.647Z,1747.00
2023-05-13T01:01:30.717Z,1747.00
2023-05-13T01:02:30.977Z,1750.00
2023-05-13T01:03:30.749Z,1733.00
2023-05-13T01:04:30.716Z,1720.00
2023-05-13T01:05:30.793Z,1716.00
2023-05-13T01:06:30.832Z,1719.00
2023-05-13T01:07:30.835Z,1711.00
2023-05-13T01:08:30.904Z,1715.00
2023-05-13T01:09:30.961Z,1716.00
2023-05-13T01:10:30.964Z,1702.00
2023-05-13T01:11:30.990Z,1717.00
2023-05-13T01:12:31.042Z,1695.00
2023-05-13T01:13:31.082Z,1696.00
2023-05-13T01:14:31.091Z,1699.00
2023-05-13T01:15:31.128Z,1674.00
2023-05-13T01:16:31.211Z,1671.00
2023-05-13T01:17:31.182Z,1658.00
2023-05-13T01:18:31.388Z,1652.00
2023-05-13T01:19:31.255Z,1642.00
2023-05-13T01:20:31.308Z,1644.00
2023-05-13T01:21:31.340Z,1644.00
2023-05-13T01:22:31.372Z,1644.00
2023-05-13T01:23:31.460Z,1643.00
2023-05-13T01:24:31.514Z,1612.00
2023-05-13T01:25:31.512Z,1603.00
2023-05-13T01:26:31.594Z,1596.00
2023-05-13T01:27:31.608Z,1596.00
2023-05-13T01:28:31.870Z,1607.00
2023-05-13T01:29:31.704Z,1611.00
2023-05-13T01:30:31.768Z,1615.00
2023-05-13T01:31:31.818Z,1608.00
2023-05-13T01:32:31.830Z,1603.00
2023-05-13T01:33:31.893Z,1578.00
2023-05-13T01:34:31.881Z,1573.00
2023-05-13T01:35:31.915Z,1583.00
2023-05-13T01:36:31.958Z,1556.00
2023-05-13T01:37:32.011Z,1560.00
2023-05-13T01:38:32.369Z,1547.00
2023-05-13T01:39:32.105Z,1536.00
2023-05-13T01:40:33.074Z,1549.00
2023-05-13T01:41:32.242Z,1520.00
2023-05-13T01:42:32.254Z,1506.00
2023-05-13T01:43:32.375Z,1514.00
2023-05-13T01:44:32.371Z,1512.00
2023-05-13T01:45:32.400Z,1527.00
2023-05-13T01:46:32.492Z,1514.00
2023-05-13T01:47:32.545Z,1511.00
2023-05-13T01:48:32.557Z,1514.00
2023-05-13T01:49:32.600Z,1488.00
2023-05-13T01:50:32.662Z,1488.00
2023-05-13T01:51:32.697Z,1496.00
2023-05-13T01:52:32.789Z,1489.00
2023-05-13T01:53:32.832Z,1507.00
2023-05-13T01:54:32.846Z,1509.00
2023-05-13T01:55:32.905Z,1520.00
2023-05-13T01:56:32.941Z,1512.00
2023-05-13T01:57:32.980Z,1507.00
2023-05-13T01:58:33.024Z,1520.00
2023-05-13T01:59:33.104Z,1514.00
2023-05-13T02:00:33.121Z,1515.00
2023-05-13T02:01:33.249Z,1520.00
2023-05-13T02:02:33.261Z,1501.00
2023-05-13T02:03:33.380Z,1502.00
2023-05-13T02:04:33.280Z,1522.00
2023-05-13T02:05:33.401Z,1541.00
2023-05-13T02:06:33.376Z,1521.00
2023-05-13T02:07:33.393Z,1513.00
2023-05-13T02:08:33.902Z,1542.00
2023-05-13T02:09:33.517Z,1560.00
2023-05-13T02:10:33.566Z,1548.00
2023-05-13T02:11:33.591Z,1558.00
2023-05-13T02:12:33.612Z,1548.00
2023-05-13T02:13:33.687Z,1555.00
2023-05-13T02:14:33.694Z,1554.00
2023-05-13T02:15:33.761Z,1563.00
2023-05-13T02:16:33.826Z,1568.00
2023-05-13T02:17:33.820Z,1561.00
2023-05-13T02:18:33.924Z,1554.00
2023-05-13T02:19:33.907Z,1553.00
2023-05-13T02:20:33.966Z,1566.00
2023-05-13T02:21:33.968Z,1572.00
2023-05-13T02:22:34.013Z,1552.00
2023-05-13T02:23:34.037Z,1546.00
2023-05-13T02:24:34.063Z,1552.00
2023-05-13T02:25:34.074Z,1552.00
2023-05-13T02:26:34.165Z,1533.00
2023-05-13T02:27:34.145Z,1540.00
2023-05-13T02:28:34.223Z,1529.00
2023-05-13T02:29:34.218Z,1543.00
2023-05-13T02:30:34.273Z,1551.00
2023-05-13T02:31:34.324Z,1539.00
2023-05-13T02:32:34.419Z,1545.00
2023-05-13T02:33:34.434Z,1529.00
2023-05-13T02:34:34.482Z,1524.00
2023-05-13T02:35:34.587Z,1513.00
2023-05-13T02:36:34.565Z,1538.00
2023-05-13T02:37:34.643Z,1522.00
2023-05-13T02:38:34.638Z,1511.00
2023-05-13T02:39:34.741Z,1512.00
2023-05-13T02:40:34.734Z,1489.00
2023-05-13T02:41:34.759Z,1512.00
2023-05-13T02:42:34.839Z,1503.00
2023-05-13T02:43:34.852Z,1494.00
2023-05-13T02:44:34.930Z,1511.00
2023-05-13T02:45:34.968Z,1509.00
2023-05-13T02:46:35.166Z,1503.00
2023-05-13T02:47:35.098Z,1497.00
2023-05-13T02:48:35.129Z,1510.00
2023-05-13T02:49:35.195Z,1498.00
2023-05-13T02:50:35.201Z,1479.00
2023-05-13T02:51:35.261Z,1480.00
2023-05-13T02:52:35.335Z,1454.00
2023-05-13T02:53:35.352Z,1442.00
2023-05-13T02:54:35.364Z,1432.00
2023-05-13T02:55:35.407Z,1440.00
2023-05-13T02:56:35.443Z,1428.00
2023-05-13T02:57:35.480Z,1414.00
2023-05-13T02:58:35.560Z,1393.00
2023-05-13T02:59:35.560Z,1397.00
2023-05-13T03:00:35.624Z,1390.00
2023-05-13T03:01:35.699Z,1379.00
2023-05-13T03:02:35.828Z,1373.00
2023-05-13T03:03:35.873Z,1382.00
2023-05-13T03:04:35.766Z,1418.00
2023-05-13T03:05:35.818Z,1429.00
2023-05-13T03:06:35.872Z,1411.00
2023-05-13T03:07:35.914Z,1420.00
2023-05-13T03:08:36.000Z,1445.00
2023-05-13T03:09:36.017Z,1430.00
2023-05-13T03:10:36.070Z,1442.00
2023-05-13T03:11:36.065Z,1450.00
2023-05-13T03:12:36.100Z,1444.00
2023-05-13T03:13:36.151Z,1460.00
2023-05-13T03:14:36.193Z,1471.00
2023-05-13T03:15:36.262Z,1450.00
2023-05-13T03:16:36.329Z,1477.00
2023-05-13T03:17:36.373Z,1469.00
2023-05-13T03:18:36.354Z,1490.00
2023-05-13T03:19:36.394Z,1490.00
2023-05-13T03:20:36.443Z,1489.00
2023-05-13T03:21:36.486Z,1498.00
2023-05-13T03:22:36.556Z,1504.00
2023-05-13T03:23:36.602Z,1522.00
2023-05-13T03:24:36.641Z,1528.00
2023-05-13T03:25:36.653Z,1522.00
2023-05-13T03:26:36.684Z,1531.00
2023-05-13T03:27:36.761Z,1526.00
2023-05-13T03:28:36.797Z,1524.00
2023-05-13T03:29:36.842Z,1544.00
2023-05-13T03:30:36.861Z,1533.00
2023-05-13T03:31:36.940Z,1553.00
2023-05-13T03:32:36.978Z,1563.00
2023-05-13T03:33:36.977Z,1548.00
2023-05-13T03:34:36.997Z,1550.00
2023-05-13T03:35:37.065Z,1549.00
2023-05-13T03:36:37.082Z,1549.00
2023-05-13T03:37:37.137Z,1562.00
2023-05-13T03:38:37.176Z,1555.00
2023-05-13T03:39:37.219Z,1548.00
2023-05-13T03:40:37.324Z,1568.00
2023-05-13T03:41:37.296Z,1581.00
2023-05-13T03:42:37.305Z,1578.00
2023-05-13T03:43:37.401Z,1576.00
2023-05-13T03:44:37.416Z,1582.00
2023-05-13T03:45:37.467Z,1594.00
2023-05-13T03:46:37.510Z,1598.00
2023-05-13T03:47:37.615Z,1596.00
2023-05-13T03:48:37.586Z,1581.00
2023-05-13T03:49:37.673Z,1584.00
2023-05-13T03:50:37.652Z,1578.00
2023-05-13T03:51:37.708Z,1590.00
2023-05-13T03:52:37.726Z,1606.00
2023-05-13T03:53:37.795Z,1605.00
2023-05-13T03:54:37.792Z,1608.00
2023-05-13T03:55:37.830Z,1615.00
2023-05-13T03:56:37.876Z,1615.00
2023-05-13T03:57:37.903Z,1604.00
2023-05-13T03:58:38.399Z,1623.00
2023-05-13T03:59:37.973Z,1622.00
2023-05-13T04:00:38.036Z,1636.00
2023-05-13T04:01:38.045Z,1622.00
2023-05-13T04:02:38.162Z,1625.00
2023-05-13T04:03:38.159Z,1644.00
2023-05-13T04:04:38.202Z,1643.00
2023-05-13T04:05:38.934Z,1643.00
2023-05-13T04:06:38.254Z,1656.00
2023-05-13T04:07:38.257Z,1651.00
2023-05-13T04:08:38.307Z,1646.00
2023-05-13T04:09:38.346Z,1653.00
2023-05-13T04:10:38.397Z,1653.00
2023-05-13T04:11:38.473Z,1660.00
2023-05-13T04:12:38.473Z,1655.00
2023-05-13T04:13:38.531Z,1653.00
2023-05-13T04:14:38.593Z,1657.00
2023-05-13T04:15:38.595Z,1664.00
2023-05-13T04:16:38.725Z,1655.00
2023-05-13T04:17:38.677Z,1647.00
2023-05-13T04:18:39.023Z,1651.00
2023-05-13T04:19:38.762Z,1655.00
2023-05-13T04:20:38.853Z,1643.00
2023-05-13T04:21:38.836Z,1637.00
2023-05-13T04:22:38.842Z,1645.00
2023-05-13T04:23:38.922Z,1637.00
2023-05-13T04:24:38.954Z,1636.00
2023-05-13T04:25:39.043Z,1632.00
2023-05-13T04:26:39.019Z,1652.00
2023-05-13T04:27:39.061Z,1643.00
2023-05-13T04:28:39.090Z,1643.00
2023-05-13T04:29:39.126Z,1637.00
2023-05-13T04:30:39.175Z,1620.00
2023-05-13T04:31:39.238Z,1629.00
2023-05-13T04:32:39.300Z,1629.00
2023-05-13T04:33:39.439Z,1637.00
2023-05-13T04:34:39.321Z,1618.00
2023-05-13T04:35:39.340Z,1628.00
2023-05-13T04:36:39.380Z,1630.00
2023-05-13T04:37:39.420Z,1614.00
2023-05-13T04:38:39.944Z,1608.00
2023-05-13T04:39:39.514Z,1638.00
2023-05-13T04:40:39.525Z,1613.00
2023-05-13T04:41:39.558Z,1627.00
2023-05-13T04:42:39.604Z,1611.00
2023-05-13T04:43:39.605Z,1633.00
2023-05-13T04:44:39.644Z,1636.00
2023-05-13T04:45:39.684Z,1612.00
2023-05-13T04:46:39.742Z,1620.00
2023-05-13T04:47:39.818Z,1608.00
2023-05-13T04:48:39.812Z,1623.00
2023-05-13T04:49:39.836Z,1611.00
2023-05-13T04:50:39.899Z,1606.00
2023-05-13T04:51:39.898Z,1609.00
2023-05-13T04:52:39.911Z,1617.00
2023-05-13T04:53:40.431Z,1606.00
2023-05-13T04:54:39.993Z,1594.00
2023-05-13T04:55:40.026Z,1628.00
2023-05-13T04:56:40.048Z,1609.00
2023-05-13T04:57:40.084Z,1619.00
2023-05-13T04:58:40.417Z,1622.00
2023-05-13T04:59:40.129Z,1633.00
2023-05-13T05:00:40.147Z,1634.00
2023-05-13T05:01:40.264Z,1628.00
2023-05-13T05:02:40.277Z,1659.00
2023-05-13T05:03:40.338Z,1646.00
2023-05-13T05:04:40.290Z,1653.00
2023-05-13T05:05:40.308Z,1648.00
2023-05-13T05:06:40.352Z,1659.00
2023-05-13T05:07:40.442Z,1664.00
2023-05-13T05:08:40.442Z,1672.00
2023-05-13T05:09:40.430Z,1679.00
2023-05-13T05:10:40.464Z,1700.00
2023-05-13T05:11:40.511Z,1670.00
2023-05-13T05:12:40.567Z,1670.00
2023-05-13T05:13:40.608Z,1670.00
2023-05-13T05:14:40.609Z,1678.00
2023-05-13T05:15:40.631Z,1698.00
2023-05-13T05:16:40.682Z,1692.00
2023-05-13T05:17:40.861Z,1675.00
2023-05-13T05:18:41.010Z,1694.00
2023-05-13T05:19:40.906Z,1680.00
2023-05-13T05:20:40.842Z,1690.00
2023-05-13T05:21:40.912Z,1684.00
2023-05-13T05:22:40.929Z,1692.00
2023-05-13T05:23:40.965Z,1686.00
2023-05-13T05:24:41.037Z,1684.00
2023-05-13T05:25:41.070Z,1694.00
2023-05-13T05:26:42.805Z,1683.00
2023-05-13T05:27:41.131Z,1690.00
2023-05-13T05:28:41.448Z,1698.00
2023-05-13T05:29:41.184Z,1696.00
2023-05-13T05:30:41.216Z,1680.00
2023-05-13T05:31:41.421Z,1689.00
2023-05-13T05:32:41.371Z,1697.00
2023-05-13T05:33:41.431Z,1708.00
2023-05-13T05:34:41.433Z,1694.00
2023-05-13T05:35:41.392Z,1693.00
2023-05-13T05:36:41.464Z,1696.00
2023-05-13T05:37:41.492Z,1710.00
2023-05-13T05:38:41.959Z,1693.00
2023-05-13T05:39:41.555Z,1703.00
2023-05-13T05:40:41.573Z,1708.00
2023-05-13T05:41:41.600Z,1697.00
2023-05-13T05:42:41.651Z,1704.00
2023-05-13T05:43:41.930Z,1704.00
2023-05-13T05:44:41.711Z,1711.00
2023-05-13T05:45:41.778Z,1713.00
2023-05-13T05:46:41.817Z,1695.00
2023-05-13T05:47:41.846Z,1713.00
2023-05-13T05:48:41.969Z,1719.00
2023-05-13T05:49:41.893Z,1709.00
2023-05-13T05:50:41.971Z,1709.00
2023-05-13T05:51:42.951Z,1747.00
2023-05-13T05:52:42.059Z,1728.00
2023-05-13T05:53:42.444Z,1729.00
2023-05-13T05:54:42.101Z,1733.00
2023-05-13T05:55:42.226Z,1740.00
2023-05-13T05:56:42.216Z,1754.00
2023-05-13T05:57:42.239Z,1747.00
2023-05-13T05:58:42.272Z,1776.00
2023-05-13T05:59:42.312Z,1765.00
2023-05-13T06:00:42.357Z,1763.00
2023-05-13T06:01:42.404Z,1769.00
2023-05-13T06:02:42.512Z,1781.00
2023-05-13T06:03:42.547Z,1781.00
2023-05-13T06:04:42.574Z,1779.00
2023-05-13T06:05:42.524Z,1775.00
2023-05-13T06:06:42.595Z,1758.00
2023-05-13T06:07:42.597Z,1787.00
2023-05-13T06:08:42.658Z,1780.00
2023-05-13T06:09:42.682Z,1785.00
2023-05-13T06:10:42.734Z,1786.00
2023-05-13T06:11:42.739Z,1771.00
2023-05-13T06:12:42.788Z,1778.00
2023-05-13T06:13:42.854Z,1800.00
2023-05-13T06:14:42.807Z,1788.00
2023-05-13T06:15:42.893Z,1806.00
2023-05-13T06:16:42.934Z,1799.00
2023-05-13T06:17:42.966Z,1809.00
2023-05-13T06:18:43.018Z,1806.00
2023-05-13T06:19:43.057Z,1815.00
2023-05-13T06:20:43.044Z,1808.00
2023-05-13T06:21:43.089Z,1819.00
2023-05-13T06:22:43.138Z,1804.00
2023-05-13T06:23:43.166Z,1803.00
2023-05-13T06:24:43.202Z,1811.00
2023-05-13T06:25:43.238Z,1811.00
2023-05-13T06:26:43.293Z,1818.00
2023-05-13T06:27:43.319Z,1812.00
2023-05-13T06:28:43.464Z,1797.00
2023-05-13T06:29:43.375Z,1784.00
2023-05-13T06:30:43.423Z,1800.00
2023-05-13T06:31:43.496Z,1795.00
2023-05-13T06:32:50.356Z,1801.00
2023-05-13T06:33:44.563Z,1802.00
2023-05-13T06:34:43.434Z,1801.00
2023-05-13T06:35:43.445Z,1790.00
2023-05-13T06:36:43.432Z,1801.00
2023-05-13T06:37:43.448Z,1790.00
2023-05-13T06:38:43.451Z,1763.00
2023-05-13T06:39:43.433Z,1798.00
2023-05-13T06:40:43.396Z,1804.00
2023-05-13T06:41:43.425Z,1791.00
2023-05-13T06:42:43.600Z,1783.00
2023-05-13T06:43:43.739Z,1783.00
2023-05-13T06:44:43.617Z,1785.00
2023-05-13T06:45:43.465Z,1773.00
2023-05-13T06:46:43.525Z,1783.00
2023-05-13T06:47:43.579Z,1766.00
2023-05-13T06:48:43.564Z,1767.00
2023-05-13T06:49:43.617Z,1773.00
2023-05-13T06:50:43.639Z,1767.00
2023-05-13T06:51:43.690Z,1772.00
2023-05-13T06:52:43.793Z,1777.00
2023-05-13T06:53:43.775Z,1765.00
2023-05-13T06:54:43.964Z,1740.00
2023-05-13T06:55:43.821Z,1736.00
2023-05-13T06:56:43.905Z,1759.00
2023-05-13T06:57:43.909Z,1763.00
2023-05-13T06:58:43.926Z,1750.00
2023-05-13T06:59:43.990Z,1750.00
2023-05-13T07:00:44.113Z,1747.00
2023-05-13T07:01:44.042Z,1748.00
2023-05-13T07:02:44.097Z,1731.00
2023-05-13T07:03:44.276Z,1744.00
2023-05-13T07:04:44.519Z,1733.00
2023-05-13T07:05:44.201Z,1702.00
2023-05-13T07:06:44.257Z,1717.00
2023-05-13T07:07:44.288Z,1704.00
2023-05-13T07:08:44.298Z,1727.00
2023-05-13T07:09:44.460Z,1726.00
2023-05-13T07:10:44.416Z,1732.00
2023-05-13T07:11:44.447Z,1727.00
2023-05-13T07:12:44.523Z,1723.00
2023-05-13T07:13:44.503Z,1717.00
2023-05-13T07:14:44.548Z,1697.00
2023-05-13T07:15:44.605Z,1708.00
2023-05-13T07:16:44.662Z,1713.00
2023-05-13T07:17:44.799Z,1696.00
2023-05-13T07:18:44.736Z,1683.00
2023-05-13T07:19:44.763Z,1682.00
2023-05-13T07:20:44.776Z,1656.00
2023-05-13T07:21:44.842Z,1634.00
2023-05-13T07:22:44.895Z,1652.00
2023-05-13T07:23:44.898Z,1658.00
2023-05-13T07:24:44.991Z,1662.00
2023-05-13T07:25:45.022Z,1674.00
2023-05-13T07:26:45.020Z,1654.00
2023-05-13T07:27:45.060Z,1644.00
2023-05-13T07:28:45.102Z,1652.00
2023-05-13T07:29:45.157Z,1650.00
2023-05-13T07:30:45.287Z,1665.00
2023-05-13T07:31:45.228Z,1644.00
2023-05-13T07:32:45.268Z,1634.00
2023-05-13T07:33:45.295Z,1641.00
2023-05-13T07:34:45.341Z,1666.00
2023-05-13T07:35:45.363Z,1650.00
2023-05-13T07:36:45.481Z,1649.00
2023-05-13T07:37:45.390Z,1643.00
2023-05-13T07:38:45.466Z,1634.00
2023-05-13T07:39:45.492Z,1626.00
2023-05-13T07:40:45.506Z,1614.00
2023-05-13T07:41:45.568Z,1636.00
2023-05-13T07:42:45.614Z,1612.00
2023-05-13T07:43:45.628Z,1595.00
2023-05-13T07:44:45.662Z,1617.00
2023-05-13T07:45:45.696Z,1620.00
2023-05-13T07:46:45.720Z,1626.00
2023-05-13T07:47:45.803Z,1606.00
2023-05-13T07:48:45.813Z,1584.00
2023-05-13T07:49:45.906Z,1590.00
2023-05-13T07:50:45.872Z,1595.00
2023-05-13T07:51:45.939Z,1576.00
2023-05-13T07:52:45.982Z,1588.00
2023-05-13T07:53:46.030Z,1557.00
2023-05-13T07:54:46.051Z,1577.00
2023-05-13T07:55:46.142Z,1581.00
2023-05-13T07:56:46.160Z,1562.00
2023-05-13T07:57:46.182Z,1587.00
2023-05-13T07:58:46.241Z,1576.00
2023-05-13T07:59:46.526Z,1581.00
2023-05-13T08:00:46.367Z,1567.00
2023-05-13T08:01:46.357Z,1571.00
2023-05-13T08:02:46.446Z,1545.00
2023-05-13T08:03:46.659Z,1565.00
2023-05-13T08:04:46.565Z,1562.00
2023-05-13T08:05:46.505Z,1575.00
2023-05-13T08:06:46.572Z,1564.00
2023-05-13T08:07:46.592Z,1546.00
2023-05-13T08:08:46.639Z,1539.00
2023-05-13T08:09:46.991Z,1555.00
2023-05-13T08:10:46.723Z,1557.00
2023-05-13T08:11:46.763Z,1525.00
2023-05-13T08:12:46.832Z,1548.00
2023-05-13T08:13:46.907Z,1546.00
2023-05-13T08:14:48.843Z,1555.00
2023-05-13T08:15:46.953Z,1530.00
2023-05-13T08:16:47.081Z,1554.00
2023-05-13T08:17:47.031Z,1531.00
2023-05-13T08:18:47.175Z,1533.00
2023-05-13T08:19:47.516Z,1526.00
2023-05-13T08:20:47.178Z,1514.00
2023-05-13T08:21:47.252Z,1503.00
2023-05-13T08:22:47.263Z,1501.00
2023-05-13T08:23:47.313Z,1486.00
2023-05-13T08:24:47.505Z,1501.00
2023-05-13T08:25:47.422Z,1506.00
2023-05-13T08:26:47.436Z,1509.00
2023-05-13T08:27:47.481Z,1508.00
2023-05-13T08:28:48.257Z,1518.00
2023-05-13T08:29:47.998Z,1495.00
2023-05-13T08:30:47.615Z,1476.00
2023-05-13T08:31:47.803Z,1461.00
2023-05-13T08:32:47.711Z,1493.00
2023-05-13T08:33:47.743Z,1463.00
2023-05-13T08:34:47.776Z,1459.00
2023-05-13T08:35:47.845Z,1456.00
2023-05-13T08:36:47.875Z,1456.00
2023-05-13T08:37:47.900Z,1444.00
2023-05-13T08:38:47.964Z,1433.00
2023-05-13T08:39:48.012Z,1432.00
2023-05-13T08:40:48.025Z,1435.00
2023-05-13T08:41:48.021Z,1426.00
2023-05-13T08:42:48.072Z,1438.00
2023-05-13T08:43:48.171Z,1446.00
2023-05-13T08:44:48.292Z,1444.00
2023-05-13T08:45:48.218Z,1430.00
2023-05-13T08:46:48.298Z,1437.00
2023-05-13T08:47:48.350Z,1438.00
2023-05-13T08:48:48.360Z,1454.00
2023-05-13T08:49:48.523Z,1456.00
2023-05-13T08:50:48.454Z,1450.00
2023-05-13T08:51:48.507Z,1486.00
2023-05-13T08:52:48.533Z,1464.00
2023-05-13T08:53:48.565Z,1481.00
2023-05-13T08:54:48.638Z,1456.00
2023-05-13T08:55:48.663Z,1458.00
2023-05-13T08:56:48.721Z,1492.00
2023-05-13T08:57:48.759Z,1461.00
2023-05-13T08:58:48.791Z,1491.00
2023-05-13T08:59:49.008Z,1487.00
2023-05-13T09:00:48.864Z,1479.00
2023-05-13T09:01:49.055Z,1487.00
2023-05-13T09:02:49.031Z,1491.00
2023-05-13T09:03:49.006Z,1519.00
2023-05-13T09:04:49.082Z,1497.00
2023-05-13T09:05:49.089Z,1477.00
2023-05-13T09:06:49.130Z,1473.00
2023-05-13T09:07:49.179Z,1455.00
2023-05-13T09:08:49.182Z,1447.00
2023-05-13T09:09:49.525Z,1450.00
2023-05-13T09:10:49.331Z,1452.00
2023-05-13T09:11:49.351Z,1451.00
2023-05-13T09:12:49.437Z,1422.00
2023-05-13T09:13:49.430Z,1449.00
2023-05-13T09:14:49.549Z,1439.00
2023-05-13T09:15:49.583Z,1426.00
2023-05-13T09:16:49.525Z,1414.00
2023-05-13T09:17:49.695Z,1417.00
2023-05-13T09:18:49.693Z,1410.00
2023-05-13T09:19:50.064Z,1424.00
2023-05-13T09:20:49.713Z,1404.00
2023-05-13T09:21:49.756Z,1376.00
2023-05-13T09:22:49.831Z,1352.00
2023-05-13T09:23:49.880Z,1361.00
2023-05-13T09:24:50.004Z,1349.00
2023-05-13T09:25:49.957Z,1339.00
2023-05-13T09:26:49.997Z,1333.00
2023-05-13T09:27:50.034Z,1365.00
2023-05-13T09:28:50.089Z,1387.00
2023-05-13T09:29:50.136Z,1379.00
2023-05-13T09:30:50.209Z,1360.00
2023-05-13T09:31:50.263Z,1390.00
2023-05-13T09:32:50.469Z,1370.00
2023-05-13T09:33:50.346Z,1393.00
2023-05-13T09:34:50.390Z,1381.00
2023-05-13T09:35:50.433Z,1386.00
2023-05-13T09:36:51.235Z,1371.00
2023-05-13T09:37:50.510Z,1355.00
2023-05-13T09:38:50.548Z,1359.00
2023-05-13T09:39:51.045Z,1371.00
2023-05-13T09:40:50.667Z,1385.00
2023-05-13T09:41:50.674Z,1373.00
2023-05-13T09:42:50.707Z,1377.00
2023-05-13T09:43:50.790Z,1364.00
2023-05-13T09:44:51.071Z,1339.00
2023-05-13T09:45:50.854Z,1344.00
2023-05-13T09:46:50.898Z,1343.00
2023-05-13T09:47:50.926Z,1311.00
2023-05-13T09:48:50.912Z,1321.00
2023-05-13T09:49:50.918Z,1293.00
2023-05-13T09:50:50.997Z,1274.00
2023-05-13T09:51:51.028Z,1270.00
2023-05-13T09:52:51.111Z,1266.00
2023-05-13T09:53:51.144Z,1246.00
2023-05-13T09:54:51.165Z,1224.00
2023-05-13T09:55:51.220Z,1209.00
2023-05-13T09:56:51.271Z,1191.00
2023-05-13T09:57:51.319Z,1200.00
2023-05-13T09:58:51.387Z,1220.00
2023-05-13T09:59:51.522Z,1207.00
2023-05-13T10:00:51.537Z,1232.00
2023-05-13T10:01:51.516Z,1209.00
2023-05-13T10:02:51.514Z,1197.00
2023-05-13T10:03:51.558Z,1206.00
2023-05-13T10:04:52.009Z,1212.00
2023-05-13T10:05:51.619Z,1180.00
2023-05-13T10:06:51.660Z,1161.00
2023-05-13T10:07:51.667Z,1169.00
2023-05-13T10:08:51.724Z,1182.00
2023-05-13T10:09:52.011Z,1199.00
2023-05-13T10:10:51.807Z,1198.00
2023-05-13T10:11:51.833Z,1166.00
2023-05-13T10:12:51.863Z,1162.00
2023-05-13T10:13:51.882Z,1156.00
2023-05-13T10:14:51.921Z,1137.00
2023-05-13T10:15:52.082Z,1152.00
2023-05-13T10:16:51.979Z,1161.00
2023-05-13T10:17:52.013Z,1171.00
2023-05-13T10:18:52.059Z,1161.00
2023-05-13T10:19:52.022Z,1166.00
2023-05-13T10:20:52.123Z,1160.00
2023-05-13T10:21:52.092Z,1171.00
2023-05-13T10:22:52.124Z,1158.00
2023-05-13T10:23:52.135Z,1146.00
2023-05-13T10:24:52.150Z,1173.00
2023-05-13T10:25:52.555Z,1145.00
2023-05-13T10:26:52.351Z,1142.00
2023-05-13T10:27:52.269Z,1152.00
2023-05-13T10:28:52.352Z,1148.00
2023-05-13T10:29:52.353Z,1139.00
2023-05-13T10:30:52.706Z,1145.00
2023-05-13T10:31:52.401Z,1111.00
2023-05-13T10:32:52.487Z,1114.00
2023-05-13T10:33:52.435Z,1135.00
2023-05-13T10:34:52.491Z,1137.00
2023-05-13T10:35:52.517Z,1137.00
2023-05-13T10:36:52.537Z,1120.00
2023-05-13T10:37:52.527Z,1124.00
2023-05-13T10:38:52.616Z,1140.00
2023-05-13T10:39:52.573Z,1143.00
2023-05-13T10:40:53.106Z,1097.00
2023-05-13T10:41:52.629Z,1070.00
2023-05-13T10:42:52.670Z,1078.00
2023-05-13T10:43:52.731Z,1041.00
2023-05-13T10:44:52.716Z,1074.00
2023-05-13T10:45:53.120Z,1027.00
2023-05-13T10:46:52.819Z,1060.00
2023-05-13T10:47:52.959Z,1049.00
2023-05-13T10:48:52.813Z,1076.00
2023-05-13T10:49:52.932Z,1089.00
2023-05-13T10:50:52.915Z,1091.00
2023-05-13T10:51:52.923Z,1141.00
2023-05-13T10:52:52.943Z,1092.00
2023-05-13T10:53:52.961Z,1112.00
2023-05-13T10:54:52.986Z,1080.00
2023-05-13T10:55:53.051Z,1081.00
2023-05-13T10:56:53.036Z,1083.00
2023-05-13T10:57:53.035Z,1055.00
2023-05-13T10:58:53.069Z,1055.00
2023-05-13T10:59:53.098Z,1054.00
2023-05-13T11:00:53.102Z,1041.00
2023-05-13T11:01:53.155Z,1037.00
2023-05-13T11:02:53.205Z,1069.00
2023-05-13T11:03:53.455Z,1050.00
2023-05-13T11:04:53.194Z,1045.00
2023-05-13T11:05:53.241Z,1060.00
2023-05-13T11:06:53.273Z,1046.00
2023-05-13T11:07:53.310Z,1076.00
2023-05-13T11:08:55.884Z,1107.00
2023-05-13T11:09:53.287Z,1098.00
2023-05-13T11:10:53.541Z,1105.00
2023-05-13T11:11:53.320Z,1081.00
2023-05-13T11:12:53.305Z,1125.00
2023-05-13T11:13:53.273Z,1127.00
2023-05-13T11:14:53.256Z,1089.00
2023-05-13T11:15:53.565Z,1031.00
2023-05-13T11:16:53.256Z,1034.00
2023-05-13T11:17:53.379Z,1039.00
2023-05-13T11:18:53.308Z,1062.00
2023-05-13T11:19:53.286Z,1030.00
2023-05-13T11:20:53.616Z,1069.00
2023-05-13T11:21:53.236Z,1017.00
2023-05-13T11:22:53.201Z,1005.00
2023-05-13T11:23:53.223Z,1048.00
2023-05-13T11:24:53.176Z,1027.00
2023-05-13T11:25:53.545Z,1045.00
2023-05-13T11:26:53.271Z,1064.00
2023-05-13T11:27:53.181Z,1056.00
2023-05-13T11:28:53.188Z,1061.00
2023-05-13T11:29:53.202Z,966.00
2023-05-13T11:30:53.162Z,1003.00
2023-05-13T11:31:53.261Z,977.00
2023-05-13T11:32:53.293Z,929.00
2023-05-13T11:33:53.185Z,932.00
2023-05-13T11:34:53.127Z,930.00
2023-05-13T11:35:53.546Z,899.00
2023-05-13T11:36:53.128Z,890.00
2023-05-13T11:37:53.145Z,887.00
2023-05-13T11:38:53.202Z,908.00
2023-05-13T11:39:53.093Z,933.00
2023-05-13T11:40:53.108Z,940.00
2023-05-13T11:41:53.103Z,911.00
2023-05-13T11:42:53.121Z,860.00
2023-05-13T11:43:53.112Z,903.00
2023-05-13T11:44:53.057Z,930.00
2023-05-13T11:45:53.620Z,894.00
2023-05-13T11:46:53.062Z,916.00
2023-05-13T11:47:53.077Z,878.00
2023-05-13T11:48:53.080Z,836.00
2023-05-13T11:49:53.034Z,815.00
2023-05-13T11:50:53.106Z,824.00
2023-05-13T11:51:53.048Z,848.00
2023-05-13T11:52:53.053Z,860.00
2023-05-13T11:53:53.014Z,854.00
2023-05-13T11:54:53.070Z,897.00
2023-05-13T11:55:53.113Z,923.00
2023-05-13T11:56:53.113Z,881.00
2023-05-13T11:57:53.061Z,829.00
2023-05-13T11:58:53.133Z,846.00
2023-05-13T11:59:53.065Z,782.00
2023-05-13T12:00:52.952Z,805.00
2023-05-13T12:01:53.013Z,791.00
2023-05-13T12:02:53.151Z,820.00
2023-05-13T12:03:52.945Z,854.00
2023-05-13T12:04:53.065Z,813.00
2023-05-13T12:05:53.154Z,814.00
2023-05-13T12:06:52.921Z,848.00